CheckWX is a tool to help pilots better visualize weather data.  It is not intended as a substitute for an official pre-flight weather briefing.

09:29:04 UTC

KFLY METAR
Meadow Lake Airport
Colorado Springs, Colorado, USA
Current

54 mins ago

KFLY 280835Z AUTO 34015G25KT 2SM -SN BKN014 OVC021 M02/M05 A2969 RMK AO2 T10201050
Observed
Mar-28 @ 08:35 UTC
Wind
  • 340° at 15 KTS
  • Gusting to 25 KTS
Visibility
2 SM
Flight Rules
IFR
Conditions
Light Snow
Cloud Levels
  • Broken at 1,400' AGL
  • Overcast at 2,100' AGL
Temperature
-2°C / 28°F
Dewpoint
-5°C / 23°F
Humidity
80%
Altimeter
29.69" Hg
Pressure
1005.42 hPa
Previous

1 hour ago

KFLY 280815Z AUTO 34021G29KT 1 3/4SM -SN BKN013 OVC021 M02/M05 A2968 RMK AO2 T10211050
Observed
Mar-28 @ 08:15 UTC
Wind
  • 340° at 21 KTS
  • Gusting to 29 KTS
Visibility
1 3/4 SM
Flight Rules
IFR
Conditions
Light Snow
Cloud Levels
  • Broken at 1,300' AGL
  • Overcast at 2,100' AGL
Temperature
-2°C / 28°F
Dewpoint
-5°C / 23°F
Humidity
80%
Altimeter
29.68" Hg
Pressure
1005.12 hPa
Previous

2 hours ago

KFLY 280755Z AUTO 34019G35KT 1 3/4SM -SN BKN014 OVC025 M02/M05 A2968 RMK AO2 T10181050
Observed
Mar-28 @ 07:55 UTC
Wind
  • 340° at 19 KTS
  • Gusting to 35 KTS
Visibility
1 3/4 SM
Flight Rules
IFR
Conditions
Light Snow
Cloud Levels
  • Broken at 1,400' AGL
  • Overcast at 2,500' AGL
Temperature
-2°C / 28°F
Dewpoint
-5°C / 23°F
Humidity
80%
Altimeter
29.68" Hg
Pressure
1005.12 hPa